sensor_id;sensor_type;location;lat;lon;timestamp;pressure;altitude;pressure_sealevel;temperature
18713;BMP280;9485;49.386;8.674;2022-11-06T00:00:37;100868.84;;;9.65
18713;BMP280;9485;49.386;8.674;2022-11-06T00:06:04;100831.72;;;9.43
18713;BMP280;9485;49.386;8.674;2022-11-06T00:11:43;100839.50;;;9.48
18713;BMP280;9485;49.386;8.674;2022-11-06T00:17:04;100845.63;;;9.47
18713;BMP280;9485;49.386;8.674;2022-11-06T00:22:26;100823.53;;;9.22
18713;BMP280;9485;49.386;8.674;2022-11-06T00:27:47;100870.25;;;9.37
18713;BMP280;9485;49.386;8.674;2022-11-06T00:33:08;100862.94;;;9.31
18713;BMP280;9485;49.386;8.674;2022-11-06T00:38:32;100854.53;;;9.22
18713;BMP280;9485;49.386;8.674;2022-11-06T00:43:56;100853.03;;;9.12
18713;BMP280;9485;49.386;8.674;2022-11-06T00:49:17;100861.59;;;9.17
18713;BMP280;9485;49.386;8.674;2022-11-06T00:54:40;100858.16;;;9.13
18713;BMP280;9485;49.386;8.674;2022-11-06T01:00:01;100845.38;;;9.03
18713;BMP280;9485;49.386;8.674;2022-11-06T01:05:23;100832.44;;;8.88
18713;BMP280;9485;49.386;8.674;2022-11-06T01:10:45;100824.03;;;8.79
18713;BMP280;9485;49.386;8.674;2022-11-06T01:16:09;100865.13;;;8.95
18713;BMP280;9485;49.386;8.674;2022-11-06T01:21:33;100831.06;;;8.84
18713;BMP280;9485;49.386;8.674;2022-11-06T01:26:56;100853.09;;;8.85
18713;BMP280;9485;49.386;8.674;2022-11-06T01:32:17;100849.09;;;8.77
18713;BMP280;9485;49.386;8.674;2022-11-06T01:37:39;100820.97;;;8.59
18713;BMP280;9485;49.386;8.674;2022-11-06T01:43:01;100807.22;;;8.52
18713;BMP280;9485;49.386;8.674;2022-11-06T01:48:26;100798.00;;;8.52
18713;BMP280;9485;49.386;8.674;2022-11-06T01:53:48;100789.09;;;8.44
18713;BMP280;9485;49.386;8.674;2022-11-06T01:59:14;100800.66;;;8.55
18713;BMP280;9485;49.386;8.674;2022-11-06T02:04:40;100798.75;;;8.61
18713;BMP280;9485;49.386;8.674;2022-11-06T02:10:05;100757.34;;;8.53
18713;BMP280;9485;49.386;8.674;2022-11-06T02:15:39;100754.97;;;8.60
18713;BMP280;9485;49.386;8.674;2022-11-06T02:21:22;100744.13;;;8.68
18713;BMP280;9485;49.386;8.674;2022-11-06T02:27:07;100748.50;;;8.69
18713;BMP280;9485;49.386;8.674;2022-11-06T02:32:36;100747.22;;;8.79
18713;BMP280;9485;49.386;8.674;2022-11-06T02:38:06;100736.22;;;8.90
18713;BMP280;9485;49.386;8.674;2022-11-06T02:43:35;100744.69;;;9.13
18713;BMP280;9485;49.386;8.674;2022-11-06T02:49:05;100734.63;;;9.21
18713;BMP280;9485;49.386;8.674;2022-11-06T02:54:36;100724.91;;;9.22
18713;BMP280;9485;49.386;8.674;2022-11-06T03:00:05;100721.38;;;9.12
18713;BMP280;9485;49.386;8.674;2022-11-06T03:05:34;100689.31;;;8.87
18713;BMP280;9485;49.386;8.674;2022-11-06T03:11:10;100726.41;;;9.08
18713;BMP280;9485;49.386;8.674;2022-11-06T03:16:42;100701.03;;;8.85
18713;BMP280;9485;49.386;8.674;2022-11-06T03:22:11;100738.94;;;9.07
18713;BMP280;9485;49.386;8.674;2022-11-06T03:27:38;100725.09;;;8.95
18713;BMP280;9485;49.386;8.674;2022-11-06T03:33:09;100721.50;;;8.95
18713;BMP280;9485;49.386;8.674;2022-11-06T03:38:39;100727.75;;;8.90
18713;BMP280;9485;49.386;8.674;2022-11-06T03:44:04;100716.28;;;8.70
18713;BMP280;9485;49.386;8.674;2022-11-06T03:49:33;100727.53;;;8.79
18713;BMP280;9485;49.386;8.674;2022-11-06T03:55:00;100720.50;;;8.74
18713;BMP280;9485;49.386;8.674;2022-11-06T04:00:23;100688.00;;;8.64
18713;BMP280;9485;49.386;8.674;2022-11-06T04:05:54;100695.53;;;8.58
18713;BMP280;9485;49.386;8.674;2022-11-06T04:11:23;100702.59;;;8.54
18713;BMP280;9485;49.386;8.674;2022-11-06T04:17:09;100676.44;;;8.30
18713;BMP280;9485;49.386;8.674;2022-11-06T04:22:45;100667.88;;;8.24
18713;BMP280;9485;49.386;8.674;2022-11-06T04:28:24;100681.44;;;8.26
18713;BMP280;9485;49.386;8.674;2022-11-06T04:33:57;100682.41;;;8.23
18713;BMP280;9485;49.386;8.674;2022-11-06T04:39:28;100684.44;;;8.14
18713;BMP280;9485;49.386;8.674;2022-11-06T04:44:59;100671.88;;;7.82
18713;BMP280;9485;49.386;8.674;2022-11-06T04:50:30;100692.16;;;7.77
18713;BMP280;9485;49.386;8.674;2022-11-06T04:56:00;100713.13;;;7.76
18713;BMP280;9485;49.386;8.674;2022-11-06T05:01:22;100692.34;;;7.56
18713;BMP280;9485;49.386;8.674;2022-11-06T05:06:43;100692.19;;;7.50
18713;BMP280;9485;49.386;8.674;2022-11-06T05:12:05;100709.66;;;7.63
18713;BMP280;9485;49.386;8.674;2022-11-06T05:17:27;100715.16;;;7.49
18713;BMP280;9485;49.386;8.674;2022-11-06T05:22:48;100708.13;;;7.27
18713;BMP280;9485;49.386;8.674;2022-11-06T05:28:20;100721.38;;;7.35
18713;BMP280;9485;49.386;8.674;2022-11-06T05:33:41;100706.41;;;7.29
18713;BMP280;9485;49.386;8.674;2022-11-06T05:39:02;100690.19;;;7.24
18713;BMP280;9485;49.386;8.674;2022-11-06T05:44:25;100685.66;;;7.27
18713;BMP280;9485;49.386;8.674;2022-11-06T05:49:46;100699.84;;;7.32
18713;BMP280;9485;49.386;8.674;2022-11-06T05:55:09;100702.03;;;7.28
18713;BMP280;9485;49.386;8.674;2022-11-06T06:00:32;100649.28;;;7.14
18713;BMP280;9485;49.386;8.674;2022-11-06T06:05:53;100606.38;;;6.87
18713;BMP280;9485;49.386;8.674;2022-11-06T06:11:14;100640.06;;;6.96
18713;BMP280;9485;49.386;8.674;2022-11-06T06:16:36;100655.69;;;7.06
18713;BMP280;9485;49.386;8.674;2022-11-06T06:21:57;100655.81;;;7.11
18713;BMP280;9485;49.386;8.674;2022-11-06T06:27:19;100649.13;;;7.09
18713;BMP280;9485;49.386;8.674;2022-11-06T06:32:41;100629.94;;;7.07
18713;BMP280;9485;49.386;8.674;2022-11-06T06:38:02;100587.03;;;6.98
18713;BMP280;9485;49.386;8.674;2022-11-06T06:43:23;100581.28;;;7.01
18713;BMP280;9485;49.386;8.674;2022-11-06T06:48:46;100551.50;;;6.86
18713;BMP280;9485;49.386;8.674;2022-11-06T06:54:08;100565.19;;;7.11
18713;BMP280;9485;49.386;8.674;2022-11-06T06:59:29;100546.94;;;6.97
18713;BMP280;9485;49.386;8.674;2022-11-06T07:04:52;100540.25;;;7.04
18713;BMP280;9485;49.386;8.674;2022-11-06T07:10:14;100522.63;;;7.03
18713;BMP280;9485;49.386;8.674;2022-11-06T07:15:37;100532.44;;;7.17
18713;BMP280;9485;49.386;8.674;2022-11-06T07:21:03;100541.63;;;7.26
18713;BMP280;9485;49.386;8.674;2022-11-06T07:26:24;100516.47;;;7.32
18713;BMP280;9485;49.386;8.674;2022-11-06T07:31:46;100491.34;;;7.37
18713;BMP280;9485;49.386;8.674;2022-11-06T07:37:09;100491.41;;;7.69
18713;BMP280;9485;49.386;8.674;2022-11-06T07:42:38;100502.16;;;8.03
18713;BMP280;9485;49.386;8.674;2022-11-06T07:48:01;100514.69;;;8.49
18713;BMP280;9485;49.386;8.674;2022-11-06T07:53:24;100515.72;;;8.75
18713;BMP280;9485;49.386;8.674;2022-11-06T07:58:53;100453.22;;;8.71
18713;BMP280;9485;49.386;8.674;2022-11-06T08:04:18;100473.44;;;9.27
18713;BMP280;9485;49.386;8.674;2022-11-06T08:09:54;100483.66;;;10.02
18713;BMP280;9485;49.386;8.674;2022-11-06T08:15:15;100520.28;;;10.70
18713;BMP280;9485;49.386;8.674;2022-11-06T08:20:39;100529.78;;;11.13
18713;BMP280;9485;49.386;8.674;2022-11-06T08:26:04;100575.19;;;11.80
18713;BMP280;9485;49.386;8.674;2022-11-06T08:31:26;100602.09;;;11.95
18713;BMP280;9485;49.386;8.674;2022-11-06T08:36:48;100593.63;;;12.31
18713;BMP280;9485;49.386;8.674;2022-11-06T08:42:12;100564.97;;;13.07
18713;BMP280;9485;49.386;8.674;2022-11-06T08:47:34;100572.28;;;14.72
18713;BMP280;9485;49.386;8.674;2022-11-06T08:52:56;100578.22;;;16.70
18713;BMP280;9485;49.386;8.674;2022-11-06T08:58:19;100559.19;;;18.25
18713;BMP280;9485;49.386;8.674;2022-11-06T09:03:39;100564.06;;;19.79
18713;BMP280;9485;49.386;8.674;2022-11-06T09:09:00;100560.50;;;20.68
18713;BMP280;9485;49.386;8.674;2022-11-06T09:14:24;100516.19;;;21.04
18713;BMP280;9485;49.386;8.674;2022-11-06T09:19:46;100520.84;;;21.65
18713;BMP280;9485;49.386;8.674;2022-11-06T09:25:09;100526.09;;;22.18
18713;BMP280;9485;49.386;8.674;2022-11-06T09:30:32;100512.31;;;22.54
18713;BMP280;9485;49.386;8.674;2022-11-06T09:35:53;100506.28;;;23.04
18713;BMP280;9485;49.386;8.674;2022-11-06T09:41:22;100466.63;;;22.58
18713;BMP280;9485;49.386;8.674;2022-11-06T09:46:54;100458.81;;;21.92
18713;BMP280;9485;49.386;8.674;2022-11-06T09:52:27;100443.28;;;22.02
18713;BMP280;9485;49.386;8.674;2022-11-06T09:57:55;100441.53;;;22.59
18713;BMP280;9485;49.386;8.674;2022-11-06T10:03:32;100422.34;;;22.46
18713;BMP280;9485;49.386;8.674;2022-11-06T10:08:59;100431.19;;;22.03
18713;BMP280;9485;49.386;8.674;2022-11-06T10:20:19;100384.41;;;19.47
18713;BMP280;9485;49.386;8.674;2022-11-06T10:25:56;100384.69;;;18.56
18713;BMP280;9485;49.386;8.674;2022-11-06T10:31:32;100362.88;;;17.63
18713;BMP280;9485;49.386;8.674;2022-11-06T10:37:07;100335.97;;;16.96
18713;BMP280;9485;49.386;8.674;2022-11-06T10:42:35;100323.22;;;16.47
18713;BMP280;9485;49.386;8.674;2022-11-06T10:48:13;100320.06;;;16.32
18713;BMP280;9485;49.386;8.674;2022-11-06T11:00:50;100263.66;;;15.41
18713;BMP280;9485;49.386;8.674;2022-11-06T11:06:17;100318.16;;;15.74
18713;BMP280;9485;49.386;8.674;2022-11-06T11:11:48;100313.16;;;15.80
18713;BMP280;9485;49.386;8.674;2022-11-06T11:17:18;100307.66;;;15.87
18713;BMP280;9485;49.386;8.674;2022-11-06T11:22:39;100288.44;;;15.93
18713;BMP280;9485;49.386;8.674;2022-11-06T11:28:02;100272.59;;;15.98
18713;BMP280;9485;49.386;8.674;2022-11-06T11:33:25;100271.94;;;15.86
18713;BMP280;9485;49.386;8.674;2022-11-06T11:38:47;100269.47;;;15.77
18713;BMP280;9485;49.386;8.674;2022-11-06T11:44:16;100248.88;;;15.90
18713;BMP280;9485;49.386;8.674;2022-11-06T11:49:38;100227.63;;;15.91
18713;BMP280;9485;49.386;8.674;2022-11-06T11:55:00;100208.94;;;15.95
18713;BMP280;9485;49.386;8.674;2022-11-06T12:00:23;100197.63;;;15.90
18713;BMP280;9485;49.386;8.674;2022-11-06T12:05:45;100194.19;;;15.73
18713;BMP280;9485;49.386;8.674;2022-11-06T12:11:08;100192.22;;;15.68
18713;BMP280;9485;49.386;8.674;2022-11-06T12:16:31;100183.75;;;15.81
18713;BMP280;9485;49.386;8.674;2022-11-06T12:21:59;100164.69;;;15.94
18713;BMP280;9485;49.386;8.674;2022-11-06T12:27:24;100154.03;;;15.95
18713;BMP280;9485;49.386;8.674;2022-11-06T12:33:08;100147.81;;;15.96
18713;BMP280;9485;49.386;8.674;2022-11-06T12:38:40;100156.59;;;15.80
18713;BMP280;9485;49.386;8.674;2022-11-06T12:44:09;100146.06;;;15.75
18713;BMP280;9485;49.386;8.674;2022-11-06T12:50:03;100129.28;;;15.72
18713;BMP280;9485;49.386;8.674;2022-11-06T12:55:32;100110.41;;;15.69
18713;BMP280;9485;49.386;8.674;2022-11-06T13:01:05;100109.91;;;15.70
18713;BMP280;9485;49.386;8.674;2022-11-06T13:12:55;100097.81;;;15.46
18713;BMP280;9485;49.386;8.674;2022-11-06T13:18:23;100096.19;;;15.32
18713;BMP280;9485;49.386;8.674;2022-11-06T13:23:49;100083.66;;;15.16
18713;BMP280;9485;49.386;8.674;2022-11-06T13:29:16;100070.06;;;15.09
18713;BMP280;9485;49.386;8.674;2022-11-06T13:40:24;100068.06;;;15.04
18713;BMP280;9485;49.386;8.674;2022-11-06T13:46:00;100056.44;;;15.02
18713;BMP280;9485;49.386;8.674;2022-11-06T13:51:37;100057.75;;;15.01
18713;BMP280;9485;49.386;8.674;2022-11-06T13:57:39;100036.63;;;14.97
18713;BMP280;9485;49.386;8.674;2022-11-06T14:03:55;100017.84;;;14.89
18713;BMP280;9485;49.386;8.674;2022-11-06T14:09:24;100029.38;;;14.78
18713;BMP280;9485;49.386;8.674;2022-11-06T14:14:47;100024.56;;;14.67
18713;BMP280;9485;49.386;8.674;2022-11-06T14:20:30;100014.50;;;14.66
18713;BMP280;9485;49.386;8.674;2022-11-06T14:26:00;100020.94;;;14.67
18713;BMP280;9485;49.386;8.674;2022-11-06T14:31:57;100007.81;;;14.64
18713;BMP280;9485;49.386;8.674;2022-11-06T14:37:47;99997.91;;;14.70
18713;BMP280;9485;49.386;8.674;2022-11-06T14:43:19;100005.63;;;14.75
18713;BMP280;9485;49.386;8.674;2022-11-06T14:48:46;100010.38;;;14.67
18713;BMP280;9485;49.386;8.674;2022-11-06T14:54:20;100002.91;;;14.64
18713;BMP280;9485;49.386;8.674;2022-11-06T14:59:45;100000.34;;;14.61
18713;BMP280;9485;49.386;8.674;2022-11-06T15:05:31;99990.13;;;14.52
18713;BMP280;9485;49.386;8.674;2022-11-06T15:10:55;99991.03;;;14.42
18713;BMP280;9485;49.386;8.674;2022-11-06T15:16:16;99986.19;;;14.37
18713;BMP280;9485;49.386;8.674;2022-11-06T15:22:11;99982.34;;;14.34
18713;BMP280;9485;49.386;8.674;2022-11-06T15:27:40;99977.16;;;14.33
18713;BMP280;9485;49.386;8.674;2022-11-06T15:33:04;99991.44;;;14.27
18713;BMP280;9485;49.386;8.674;2022-11-06T15:38:39;99993.03;;;14.23
18713;BMP280;9485;49.386;8.674;2022-11-06T15:43:59;99991.00;;;14.18
18713;BMP280;9485;49.386;8.674;2022-11-06T15:49:21;99986.66;;;14.17
18713;BMP280;9485;49.386;8.674;2022-11-06T15:54:44;99989.78;;;14.14
18713;BMP280;9485;49.386;8.674;2022-11-06T16:00:09;99978.94;;;14.12
18713;BMP280;9485;49.386;8.674;2022-11-06T16:05:36;99984.09;;;14.14
18713;BMP280;9485;49.386;8.674;2022-11-06T16:11:00;99974.25;;;14.15
18713;BMP280;9485;49.386;8.674;2022-11-06T16:16:36;99956.72;;;14.16
18713;BMP280;9485;49.386;8.674;2022-11-06T16:22:01;99944.66;;;14.10
18713;BMP280;9485;49.386;8.674;2022-11-06T16:27:26;99952.94;;;14.03
18713;BMP280;9485;49.386;8.674;2022-11-06T16:32:52;99940.63;;;13.95
18713;BMP280;9485;49.386;8.674;2022-11-06T16:38:36;99954.81;;;13.95
18713;BMP280;9485;49.386;8.674;2022-11-06T16:44:22;99957.66;;;13.95
18713;BMP280;9485;49.386;8.674;2022-11-06T16:49:45;99981.91;;;13.96
18713;BMP280;9485;49.386;8.674;2022-11-06T16:55:23;100010.00;;;13.99
18713;BMP280;9485;49.386;8.674;2022-11-06T17:00:55;100016.22;;;13.98
18713;BMP280;9485;49.386;8.674;2022-11-06T17:06:22;99998.50;;;13.86
18713;BMP280;9485;49.386;8.674;2022-11-06T17:11:43;100009.13;;;13.80
18713;BMP280;9485;49.386;8.674;2022-11-06T17:17:05;100036.44;;;13.83
18713;BMP280;9485;49.386;8.674;2022-11-06T17:22:26;100057.34;;;13.86
18713;BMP280;9485;49.386;8.674;2022-11-06T17:27:46;100043.09;;;13.91
18713;BMP280;9485;49.386;8.674;2022-11-06T17:33:08;100040.78;;;13.90
18713;BMP280;9485;49.386;8.674;2022-11-06T17:38:28;100038.28;;;13.81
18713;BMP280;9485;49.386;8.674;2022-11-06T17:43:49;100042.94;;;13.78
18713;BMP280;9485;49.386;8.674;2022-11-06T17:49:13;100019.25;;;13.70
18713;BMP280;9485;49.386;8.674;2022-11-06T17:54:34;100017.00;;;13.63
18713;BMP280;9485;49.386;8.674;2022-11-06T17:59:57;100038.94;;;13.63
18713;BMP280;9485;49.386;8.674;2022-11-06T18:05:22;100052.59;;;13.59
18713;BMP280;9485;49.386;8.674;2022-11-06T18:10:43;100046.75;;;13.51
18713;BMP280;9485;49.386;8.674;2022-11-06T18:16:13;100049.66;;;13.41
18713;BMP280;9485;49.386;8.674;2022-11-06T18:21:36;100048.63;;;13.38
18713;BMP280;9485;49.386;8.674;2022-11-06T18:26:57;100060.00;;;13.33
18713;BMP280;9485;49.386;8.674;2022-11-06T18:32:19;100069.28;;;13.28
18713;BMP280;9485;49.386;8.674;2022-11-06T18:37:40;100061.41;;;13.10
18713;BMP280;9485;49.386;8.674;2022-11-06T18:43:01;100051.94;;;12.91
18713;BMP280;9485;49.386;8.674;2022-11-06T18:48:21;100071.03;;;12.79
18713;BMP280;9485;49.386;8.674;2022-11-06T18:53:44;100091.38;;;12.78
18713;BMP280;9485;49.386;8.674;2022-11-06T18:59:14;100102.94;;;12.80
18713;BMP280;9485;49.386;8.674;2022-11-06T19:04:37;100104.75;;;12.83
18713;BMP280;9485;49.386;8.674;2022-11-06T19:09:59;100106.31;;;12.84
18713;BMP280;9485;49.386;8.674;2022-11-06T19:15:19;100091.66;;;12.74
18713;BMP280;9485;49.386;8.674;2022-11-06T19:20:40;100096.03;;;12.70
18713;BMP280;9485;49.386;8.674;2022-11-06T19:26:05;100087.75;;;12.72
18713;BMP280;9485;49.386;8.674;2022-11-06T19:31:26;100123.03;;;12.76
18713;BMP280;9485;49.386;8.674;2022-11-06T19:36:47;100119.19;;;12.85
18713;BMP280;9485;49.386;8.674;2022-11-06T19:42:09;100130.78;;;12.92
18713;BMP280;9485;49.386;8.674;2022-11-06T19:47:30;100122.75;;;12.96
18713;BMP280;9485;49.386;8.674;2022-11-06T19:52:51;100136.16;;;13.01
18713;BMP280;9485;49.386;8.674;2022-11-06T19:58:14;100135.09;;;13.04
18713;BMP280;9485;49.386;8.674;2022-11-06T20:03:35;100123.50;;;13.08
18713;BMP280;9485;49.386;8.674;2022-11-06T20:08:56;100117.59;;;13.06
18713;BMP280;9485;49.386;8.674;2022-11-06T20:14:19;100109.59;;;13.04
18713;BMP280;9485;49.386;8.674;2022-11-06T20:19:40;100106.75;;;13.04
18713;BMP280;9485;49.386;8.674;2022-11-06T20:25:02;100118.09;;;13.04
18713;BMP280;9485;49.386;8.674;2022-11-06T20:30:23;100113.22;;;13.05
18713;BMP280;9485;49.386;8.674;2022-11-06T20:35:44;100124.28;;;13.08
18713;BMP280;9485;49.386;8.674;2022-11-06T20:41:05;100129.44;;;13.10
18713;BMP280;9485;49.386;8.674;2022-11-06T20:46:27;100131.25;;;13.13
18713;BMP280;9485;49.386;8.674;2022-11-06T20:51:48;100149.00;;;13.19
18713;BMP280;9485;49.386;8.674;2022-11-06T20:57:08;100157.47;;;13.24
18713;BMP280;9485;49.386;8.674;2022-11-06T21:02:30;100165.19;;;13.29
18713;BMP280;9485;49.386;8.674;2022-11-06T21:07:51;100174.72;;;13.32
18713;BMP280;9485;49.386;8.674;2022-11-06T21:13:11;100191.47;;;13.35
18713;BMP280;9485;49.386;8.674;2022-11-06T21:18:35;100198.16;;;13.38
18713;BMP280;9485;49.386;8.674;2022-11-06T21:23:57;100197.91;;;13.36
18713;BMP280;9485;49.386;8.674;2022-11-06T21:29:18;100188.16;;;13.26
18713;BMP280;9485;49.386;8.674;2022-11-06T21:34:40;100203.63;;;13.25
18713;BMP280;9485;49.386;8.674;2022-11-06T21:40:01;100204.09;;;13.29
18713;BMP280;9485;49.386;8.674;2022-11-06T21:45:22;100213.13;;;13.33
18713;BMP280;9485;49.386;8.674;2022-11-06T21:50:44;100218.53;;;13.36
18713;BMP280;9485;49.386;8.674;2022-11-06T21:56:06;100214.66;;;13.39
18713;BMP280;9485;49.386;8.674;2022-11-06T22:01:29;100208.47;;;13.41
18713;BMP280;9485;49.386;8.674;2022-11-06T22:06:51;100210.78;;;13.42
18713;BMP280;9485;49.386;8.674;2022-11-06T22:12:12;100203.56;;;13.41
18713;BMP280;9485;49.386;8.674;2022-11-06T22:17:32;100212.81;;;13.42
18713;BMP280;9485;49.386;8.674;2022-11-06T22:22:54;100211.28;;;13.46
18713;BMP280;9485;49.386;8.674;2022-11-06T22:28:15;100214.38;;;13.48
18713;BMP280;9485;49.386;8.674;2022-11-06T22:33:36;100210.78;;;13.48
18713;BMP280;9485;49.386;8.674;2022-11-06T22:39:02;100227.00;;;13.52
18713;BMP280;9485;49.386;8.674;2022-11-06T22:44:23;100236.00;;;13.56
18713;BMP280;9485;49.386;8.674;2022-11-06T22:49:44;100250.44;;;13.58
18713;BMP280;9485;49.386;8.674;2022-11-06T22:55:07;100248.13;;;13.57
18713;BMP280;9485;49.386;8.674;2022-11-06T23:00:30;100249.69;;;13.58
18713;BMP280;9485;49.386;8.674;2022-11-06T23:05:50;100259.72;;;13.59
18713;BMP280;9485;49.386;8.674;2022-11-06T23:11:14;100266.19;;;13.54
18713;BMP280;9485;49.386;8.674;2022-11-06T23:16:35;100263.88;;;13.52
18713;BMP280;9485;49.386;8.674;2022-11-06T23:22:14;100274.44;;;13.52
18713;BMP280;9485;49.386;8.674;2022-11-06T23:27:54;100282.69;;;13.50
18713;BMP280;9485;49.386;8.674;2022-11-06T23:33:15;100276.25;;;13.49
18713;BMP280;9485;49.386;8.674;2022-11-06T23:38:36;100283.19;;;13.54
18713;BMP280;9485;49.386;8.674;2022-11-06T23:44:00;100269.00;;;13.54
18713;BMP280;9485;49.386;8.674;2022-11-06T23:49:22;100265.16;;;13.51
18713;BMP280;9485;49.386;8.674;2022-11-06T23:54:43;100275.75;;;13.51
